Caner Karaloglu — TCUL5 — position and weather

sailwx.info

Track history (hours):
 
Tides and Currents Weather Stations Pressure Air Temp Water Temp Dewpoint Dewpoint Depression Visibility Wind Speed Wind Dir Waves Ship Positions

Caner Karaloglu

Last reported at 2014-Jul-23 15:08 UTC. Time now 2014-Jul-24 14:41 UTC.
Position N 34°37' E 032°33'.

Length 70 m; draft 4.3 m.

Type: Tanker. MMSI: 271043140.

Date/timePositionNaut miles runAvg speedWind from/ knotsBaromVisibWave heightAir tempDewpointWater temp
2014-Jul-23 15:08N 34°37' E 032°33'4 7.2
2014-Jul-23 14:33N 34°36' E 032°38'7 6.8
2014-Jul-23 13:33N 34°33' E 032°45'7 6.6
2014-Jul-23 12:33N 34°31' E 032°53'7 6.8
2014-Jul-23 11:33N 34°31' E 033°01'8 7.6
2014-Jul-23 10:32N 34°35' E 033°09'8 7.7
2014-Jul-23 09:32N 34°39' E 033°18'8 8.6
2014-Jul-23 08:33N 34°42' E 033°27'9 8.7
2014-Jul-23 07:33N 34°46' E 033°37'8 0.3
2014-Jul-22 01:28N 34°42' E 033°29'7 8.3
2014-Jul-22 00:33N 34°38' E 033°20'9 8.5
2014-Jul-21 23:33N 34°35' E 033°11'9 8.9
2014-Jul-21 22:33N 34°31' E 033°01'9 8.8
2014-Jul-21 21:33N 34°31' E 032°50'10 8.7
2014-Jul-21 20:26N 34°33' E 032°39'1 8.6
2014-Jul-21 20:15N 34°33' E 032°37'321 7.5
2014-Jul-20 01:30N 36°45' E 026°37'26 8.4
2014-Jul-19 22:22N 36°60' E 026°10'7 8.3
2014-Jul-19 21:32N 37°04' E 026°03'8 8.3
2014-Jul-19 20:33N 37°09' E 025°55'9 8.2
2014-Jul-19 19:30N 37°11' E 025°44'8 8.1
2014-Jul-19 18:33N 37°14' E 025°35'8 8.2
2014-Jul-19 17:33N 37°17' E 025°26'8 7.7
2014-Jul-19 16:33N 37°19' E 025°16'8 7.9
2014-Jul-19 15:33N 37°22' E 025°07'8 7.5
2014-Jul-19 14:32N 37°25' E 024°58'0 0.1
2014-Jul-19 13:32N 37°25' E 024°58'1 0.5
2014-Jul-19 12:33N 37°25' E 024°59'8 7.8
2014-Jul-19 11:33N 37°28' E 025°08'8 8.5
2014-Jul-19 10:33N 37°34' E 025°16'16 7.9
2014-Jul-19 08:33N 37°49' E 025°17'  
2014-Jul-15 19:30N 37°40' E 025°25'7 6.9
2014-Jul-15 18:33N 37°35' E 025°31'7 7.0
2014-Jul-15 17:33N 37°30' E 025°38'7 6.8
2014-Jul-15 16:33N 37°25' E 025°42'6 6.3
2014-Jul-15 15:33N 37°19' E 025°46'7 6.6
2014-Jul-15 14:33N 37°14' E 025°51'7 7.1
2014-Jul-15 13:33N 37°08' E 025°56'7 7.3
2014-Jul-15 12:33N 37°04' E 026°04'8 7.8
2014-Jul-15 11:33N 36°60' E 026°12'12 7.7
2014-Jul-15 10:03N 36°53' E 026°24'4 7.7
2014-Jul-15 09:33N 36°51' E 026°28'8 7.9
2014-Jul-15 08:32N 36°46' E 026°36'10 8.4
2014-Jul-15 07:23N 36°41' E 026°46'6 7.3
2014-Jul-15 06:33N 36°38' E 026°53'8 7.8
2014-Jul-15 05:33N 36°34' E 027°01'8 7.8
2014-Jul-15 04:33N 36°32' E 027°10'25 8.3
2014-Jul-15 01:29N 36°30' E 027°42'  
Track history (hours):
 
Tides and Currents Weather Stations Pressure Air Temp Water Temp Dewpoint Dewpoint Depression Visibility Wind Speed Wind Dir Waves Ship Positions

Caner Karaloglu

Last reported at 2014-Jul-23 15:08 UTC. Time now 2014-Jul-24 14:41 UTC.
Position N 34°37' E 032°33'.

Length 70 m; draft 4.3 m.

Type: Tanker. MMSI: 271043140.

Date/timePositionNaut miles runAvg speedWind from/ knotsBaromVisibWave heightAir tempDewpointWater temp
2014-Jul-23 15:08N 34°37' E 032°33'4 7.2
2014-Jul-23 14:33N 34°36' E 032°38'7 6.8
2014-Jul-23 13:33N 34°33' E 032°45'7 6.6
2014-Jul-23 12:33N 34°31' E 032°53'7 6.8
2014-Jul-23 11:33N 34°31' E 033°01'8 7.6
2014-Jul-23 10:32N 34°35' E 033°09'8 7.7
2014-Jul-23 09:32N 34°39' E 033°18'8 8.6
2014-Jul-23 08:33N 34°42' E 033°27'9 8.7
2014-Jul-23 07:33N 34°46' E 033°37'8 0.3
2014-Jul-22 01:28N 34°42' E 033°29'7 8.3
2014-Jul-22 00:33N 34°38' E 033°20'9 8.5
2014-Jul-21 23:33N 34°35' E 033°11'9 8.9
2014-Jul-21 22:33N 34°31' E 033°01'9 8.8
2014-Jul-21 21:33N 34°31' E 032°50'10 8.7
2014-Jul-21 20:26N 34°33' E 032°39'1 8.6
2014-Jul-21 20:15N 34°33' E 032°37'321 7.5
2014-Jul-20 01:30N 36°45' E 026°37'26 8.4
2014-Jul-19 22:22N 36°60' E 026°10'7 8.3
2014-Jul-19 21:32N 37°04' E 026°03'8 8.3
2014-Jul-19 20:33N 37°09' E 025°55'9 8.2
2014-Jul-19 19:30N 37°11' E 025°44'8 8.1
2014-Jul-19 18:33N 37°14' E 025°35'8 8.2
2014-Jul-19 17:33N 37°17' E 025°26'8 7.7
2014-Jul-19 16:33N 37°19' E 025°16'8 7.9
2014-Jul-19 15:33N 37°22' E 025°07'8 7.5
2014-Jul-19 14:32N 37°25' E 024°58'0 0.1
2014-Jul-19 13:32N 37°25' E 024°58'1 0.5
2014-Jul-19 12:33N 37°25' E 024°59'8 7.8
2014-Jul-19 11:33N 37°28' E 025°08'8 8.5
2014-Jul-19 10:33N 37°34' E 025°16'16 7.9
2014-Jul-19 08:33N 37°49' E 025°17'  
2014-Jul-15 19:30N 37°40' E 025°25'7 6.9
2014-Jul-15 18:33N 37°35' E 025°31'7 7.0
2014-Jul-15 17:33N 37°30' E 025°38'7 6.8
2014-Jul-15 16:33N 37°25' E 025°42'6 6.3
2014-Jul-15 15:33N 37°19' E 025°46'7 6.6
2014-Jul-15 14:33N 37°14' E 025°51'7 7.1
2014-Jul-15 13:33N 37°08' E 025°56'7 7.3
2014-Jul-15 12:33N 37°04' E 026°04'8 7.8
2014-Jul-15 11:33N 36°60' E 026°12'12 7.7
2014-Jul-15 10:03N 36°53' E 026°24'4 7.7
2014-Jul-15 09:33N 36°51' E 026°28'8 7.9
2014-Jul-15 08:32N 36°46' E 026°36'10 8.4
2014-Jul-15 07:23N 36°41' E 026°46'6 7.3
2014-Jul-15 06:33N 36°38' E 026°53'8 7.8
2014-Jul-15 05:33N 36°34' E 027°01'8 7.8
2014-Jul-15 04:33N 36°32' E 027°10'25 8.3
2014-Jul-15 01:29N 36°30' E 027°42'  

Dump ship's entire track history